Time;durP1;ratioP1;P1;durP2;ratioP2;P2;SDS_P1;SDS_P2;PMS_P1;PMS_P2;Temp;Humidity;BMP_temperature;BMP_pressure;BME280_temperature;BME280_humidity;BME280_pressure;Samples;Min_cycle;Max_cycle;Signal;HPM_P1;HPM_P2
2022/04/20 00:01:42;;;;;;;;;27.25;25.75;;;;;;;;5122948;27;45372;-76
2022/04/20 00:04:08;;;;;;;;;21.25;20.25;;;;;;;;5104533;27;45356;-77
2022/04/20 00:06:33;;;;;;;;;27.00;26.25;;;;;;;;5123240;27;45332;-77
2022/04/20 00:08:58;;;;;;;;;27.50;25.00;;;;;;;;5123216;27;45247;-77
2022/04/20 00:11:24;;;;;;;;;29.00;27.50;;;;;;;;5122794;27;45335;-76
2022/04/20 00:13:49;;;;;;;;;24.50;22.75;;;;;;;;5122874;27;45256;-77
2022/04/20 00:16:14;;;;;;;;;23.75;23.50;;;;;;;;5103906;27;45251;-76
2022/04/20 00:18:39;;;;;;;;;21.50;21.00;;;;;;;;5122686;27;45241;-77
2022/04/20 00:21:04;;;;;;;;;29.00;28.50;;;;;;;;5121602;27;45334;-77
2022/04/20 00:23:29;;;;;;;;;30.00;27.00;;;;;;;;5122921;27;45442;-77
2022/04/20 00:25:55;;;;;;;;;24.75;24.25;;;;;;;;5122991;27;45420;-77
2022/04/20 00:28:20;;;;;;;;;31.25;27.75;;;;;;;;5104009;27;47325;-77
2022/04/20 00:30:45;;;;;;;;;31.00;28.25;;;;;;;;5103966;27;47847;-77
2022/04/20 00:33:10;;;;;;;;;29.50;25.50;;;;;;;;5103607;27;45327;-77
2022/04/20 00:35:35;;;;;;;;;32.00;29.00;;;;;;;;5122630;27;45337;-77
2022/04/20 00:38:01;;;;;;;;;24.75;24.50;;;;;;;;5121982;27;45495;-77
2022/04/20 00:40:26;;;;;;;;;28.75;28.25;;;;;;;;5103428;27;46932;-77
2022/04/20 00:42:51;;;;;;;;;28.75;28.00;;;;;;;;5122369;27;45252;-77
2022/04/20 00:45:17;;;;;;;;;32.50;29.25;;;;;;;;5122448;27;45242;-77
2022/04/20 00:47:43;;;;;;;;;30.75;27.00;;;;;;;;5103253;27;47970;-77
2022/04/20 00:50:08;;;;;;;;;26.50;25.50;;;;;;;;5121771;27;46483;-77
2022/04/20 00:52:34;;;;;;;;;32.25;27.75;;;;;;;;5103308;27;45671;-77
2022/04/20 00:54:59;;;;;;;;;25.00;24.50;;;;;;;;5121901;27;45344;-78
2022/04/20 00:57:24;;;;;;;;;29.00;25.75;;;;;;;;5121722;27;45492;-77
2022/04/20 00:59:51;;;;;;;;;32.75;29.00;;;;;;;;5103193;27;47266;-77
2022/04/20 01:02:17;;;;;;;;;30.50;26.25;;;;;;;;5121537;27;45318;-77
2022/04/20 01:04:42;;;;;;;;;26.75;26.75;;;;;;;;5121759;27;45271;-77
2022/04/20 01:07:14;;;;;;;;;32.25;28.75;;;;;;;;5121735;27;45348;-77
2022/04/20 01:09:43;;;;;;;;;29.50;28.25;;;;;;;;5102956;27;48193;-77
2022/04/20 01:12:09;;;;;;;;;29.50;27.75;;;;;;;;5103144;27;46053;-77
2022/04/20 01:14:35;;;;;;;;;31.00;29.50;;;;;;;;5121551;27;45559;-76
2022/04/20 01:17:00;;;;;;;;;32.75;31.50;;;;;;;;5103016;27;46106;-77
2022/04/20 01:19:36;;;;;;;;;30.00;29.75;;;;;;;;5121580;27;46208;-77
2022/04/20 01:22:01;;;;;;;;;35.50;31.00;;;;;;;;5103020;27;45251;-77
2022/04/20 01:24:27;;;;;;;;;33.25;31.75;;;;;;;;5103373;27;45254;-77
2022/04/20 01:26:52;;;;;;;;;32.50;30.75;;;;;;;;5121661;27;45198;-77
2022/04/20 01:29:18;;;;;;;;;35.25;32.00;;;;;;;;5121539;27;45316;-77
2022/04/20 01:31:43;;;;;;;;;34.75;32.00;;;;;;;;5120817;27;45311;-76
2022/04/20 01:34:09;;;;;;;;;33.50;30.75;;;;;;;;5121374;27;45405;-77
2022/04/20 01:36:34;;;;;;;;;39.25;32.50;;;;;;;;5121419;27;45301;-77
2022/04/20 01:38:59;;;;;;;;;33.25;31.25;;;;;;;;5121286;27;45342;-77
2022/04/20 01:41:24;;;;;;;;;36.25;33.25;;;;;;;;5121415;27;45294;-77
2022/04/20 01:43:49;;;;;;;;;38.00;33.75;;;;;;;;5121442;27;45311;-76
2022/04/20 01:46:15;;;;;;;;;37.50;34.50;;;;;;;;5102417;27;45778;-77
2022/04/20 01:48:41;;;;;;;;;43.50;37.50;;;;;;;;5121289;27;45930;-77
2022/04/20 01:53:50;;;;;;;;;46.00;37.00;;;;;;;;5121415;27;45386;-77
2022/04/20 01:56:15;;;;;;;;;44.00;35.50;;;;;;;;5121253;27;45280;-77
2022/04/20 01:58:40;;;;;;;;;40.50;34.75;;;;;;;;5121165;27;46221;-77
2022/04/20 02:02:34;;;;;;;;;39.50;33.25;;;;;;;;5102108;27;45339;-77
2022/04/20 02:03:51;;;;;;;;;39.25;34.00;;;;;;;;5120912;27;45435;-76
2022/04/20 02:06:16;;;;;;;;;43.25;36.00;;;;;;;;5120674;27;45531;-76
2022/04/20 02:08:42;;;;;;;;;39.00;34.50;;;;;;;;5120683;27;46056;-77
2022/04/20 02:11:07;;;;;;;;;41.00;35.25;;;;;;;;5120721;27;45249;-77
2022/04/20 02:13:32;;;;;;;;;46.50;38.00;;;;;;;;5102622;27;45361;-77
2022/04/20 02:16:01;;;;;;;;;49.25;39.00;;;;;;;;5102040;27;46197;-77
2022/04/20 02:18:26;;;;;;;;;47.00;38.50;;;;;;;;5101946;27;47266;-77
2022/04/20 02:20:52;;;;;;;;;43.50;37.50;;;;;;;;5120724;27;45217;-77
2022/04/20 02:23:17;;;;;;;;;47.50;35.50;;;;;;;;5120741;27;45279;-77
2022/04/20 02:25:43;;;;;;;;;42.25;35.50;;;;;;;;5120801;27;45156;-77
2022/04/20 02:28:08;;;;;;;;;45.25;38.50;;;;;;;;5120595;27;45876;-77
2022/04/20 02:30:33;;;;;;;;;49.00;40.50;;;;;;;;5120516;27;45198;-76
2022/04/20 02:32:58;;;;;;;;;47.50;40.50;;;;;;;;5120313;27;45177;-77
2022/04/20 02:35:24;;;;;;;;;50.25;41.25;;;;;;;;5120383;27;45450;-77
2022/04/20 02:37:49;;;;;;;;;49.00;39.25;;;;;;;;5101449;27;46676;-77
2022/04/20 02:40:14;;;;;;;;;44.50;38.75;;;;;;;;5120197;27;45386;-77
2022/04/20 02:42:39;;;;;;;;;46.25;39.75;;;;;;;;5101891;27;45326;-77
2022/04/20 02:45:05;;;;;;;;;46.25;37.25;;;;;;;;5124073;27;45219;-77
2022/04/20 02:47:30;;;;;;;;;47.75;40.50;;;;;;;;5105082;27;47281;-77
2022/04/20 02:49:55;;;;;;;;;51.00;41.75;;;;;;;;5105159;27;45793;-77
2022/04/20 02:52:22;;;;;;;;;49.00;39.00;;;;;;;;5124086;27;45299;-76
2022/04/20 02:54:47;;;;;;;;;49.25;40.25;;;;;;;;5123708;27;45445;-77
2022/04/20 02:57:12;;;;;;;;;54.75;43.50;;;;;;;;5105353;27;48067;-77
2022/04/20 02:59:37;;;;;;;;;46.25;39.00;;;;;;;;5105035;27;46065;-76
2022/04/20 03:02:03;;;;;;;;;51.25;41.75;;;;;;;;5123640;27;45335;-77
2022/04/20 03:04:29;;;;;;;;;50.00;42.25;;;;;;;;5123987;27;45305;-77
2022/04/20 03:06:54;;;;;;;;;50.50;40.75;;;;;;;;5123738;27;45936;-77
2022/04/20 03:09:19;;;;;;;;;52.75;41.75;;;;;;;;5105122;27;45812;-76
2022/04/20 03:11:44;;;;;;;;;52.75;41.00;;;;;;;;5105345;27;45266;-77
2022/04/20 03:14:10;;;;;;;;;50.00;42.00;;;;;;;;5123634;27;45153;-77
2022/04/20 03:16:36;;;;;;;;;57.50;44.75;;;;;;;;5104462;27;47276;-77
2022/04/20 03:19:01;;;;;;;;;54.75;44.00;;;;;;;;5123480;27;45226;-77
2022/04/20 03:21:26;;;;;;;;;52.50;43.75;;;;;;;;5105116;27;45283;-76
2022/04/20 03:23:52;;;;;;;;;56.25;46.00;;;;;;;;5123326;27;45198;-77
2022/04/20 03:26:17;;;;;;;;;52.00;42.50;;;;;;;;5123247;27;46282;-77
2022/04/20 03:28:42;;;;;;;;;55.25;46.50;;;;;;;;5123079;27;45201;-77
2022/04/20 03:31:07;;;;;;;;;56.50;45.75;;;;;;;;5122939;27;45256;-77
2022/04/20 03:33:33;;;;;;;;;57.00;46.75;;;;;;;;5104643;27;46249;-76
2022/04/20 03:35:58;;;;;;;;;57.25;45.75;;;;;;;;5123239;27;45479;-77
2022/04/20 03:38:23;;;;;;;;;60.00;48.50;;;;;;;;5123296;27;45192;-77
2022/04/20 03:40:48;;;;;;;;;49.00;40.50;;;;;;;;5123333;27;45252;-77
2022/04/20 03:43:14;;;;;;;;;58.00;47.50;;;;;;;;5104859;27;46102;-76
2022/04/20 03:45:39;;;;;;;;;56.50;47.75;;;;;;;;5104477;27;48214;-76
2022/04/20 03:48:04;;;;;;;;;56.00;46.25;;;;;;;;5122730;27;45353;-76
2022/04/20 03:50:30;;;;;;;;;58.50;46.75;;;;;;;;5123004;27;45341;-77
2022/04/20 03:52:55;;;;;;;;;55.75;45.75;;;;;;;;5104246;27;46171;-76
2022/04/20 03:55:20;;;;;;;;;58.25;47.25;;;;;;;;5122762;27;45447;-77
2022/04/20 03:57:45;;;;;;;;;58.75;47.25;;;;;;;;5104645;27;45370;-76
2022/04/20 04:00:11;;;;;;;;;56.25;46.25;;;;;;;;5123554;27;45321;-76
2022/04/20 04:02:36;;;;;;;;;59.50;49.00;;;;;;;;5104339;27;47362;-77
2022/04/20 04:05:01;;;;;;;;;59.00;48.25;;;;;;;;5123097;27;45462;-77
2022/04/20 04:07:27;;;;;;;;;59.50;48.25;;;;;;;;5103941;27;45799;-77
2022/04/20 04:09:52;;;;;;;;;57.50;45.25;;;;;;;;5122753;27;45312;-77
2022/04/20 04:12:23;;;;;;;;;62.50;49.75;;;;;;;;5122676;27;45552;-76
2022/04/20 04:14:49;;;;;;;;;57.25;46.25;;;;;;;;5103760;27;48121;-77
2022/04/20 04:17:14;;;;;;;;;59.50;48.00;;;;;;;;5104236;27;45404;-77
2022/04/20 04:19:40;;;;;;;;;59.50;49.00;;;;;;;;5122552;27;45539;-77
2022/04/20 04:22:05;;;;;;;;;63.75;50.25;;;;;;;;5122152;27;45472;-76
2022/04/20 04:24:37;;;;;;;;;59.75;48.50;;;;;;;;5122193;27;45271;-77
2022/04/20 04:27:06;;;;;;;;;61.50;49.00;;;;;;;;5122237;27;45289;-77
2022/04/20 04:29:32;;;;;;;;;57.00;47.00;;;;;;;;5122101;27;45319;-76
2022/04/20 04:31:57;;;;;;;;;58.25;48.25;;;;;;;;5103239;27;46061;-76
2022/04/20 04:34:22;;;;;;;;;61.00;48.25;;;;;;;;5103116;27;48353;-76
2022/04/20 04:36:48;;;;;;;;;60.50;47.25;;;;;;;;5121762;27;45296;-76
2022/04/20 04:39:17;;;;;;;;;62.00;48.75;;;;;;;;5122074;27;45445;-76
2022/04/20 04:41:42;;;;;;;;;58.00;47.00;;;;;;;;5121756;27;45394;-76
2022/04/20 04:44:08;;;;;;;;;54.00;44.50;;;;;;;;5121668;27;45308;-76
2022/04/20 04:49:16;;;;;;;;;60.25;47.00;;;;;;;;5121700;27;45335;-76
2022/04/20 04:51:42;;;;;;;;;56.25;46.25;;;;;;;;5121232;27;45157;-76
2022/04/20 04:54:07;;;;;;;;;56.50;46.25;;;;;;;;5121571;27;45315;-76
2022/04/20 04:56:32;;;;;;;;;60.25;49.00;;;;;;;;5121548;27;45360;-76
2022/04/20 04:58:58;;;;;;;;;61.00;47.00;;;;;;;;5121697;27;45208;-76
2022/04/20 05:01:23;;;;;;;;;61.00;49.25;;;;;;;;5102801;27;45374;-76
2022/04/20 05:03:48;;;;;;;;;63.00;49.75;;;;;;;;5102816;27;47433;-76
2022/04/20 05:06:14;;;;;;;;;56.25;45.25;;;;;;;;5120797;27;45227;-76
2022/04/20 05:08:39;;;;;;;;;64.00;49.75;;;;;;;;5121493;27;45279;-76
2022/04/20 05:11:04;;;;;;;;;60.75;48.00;;;;;;;;5121465;27;45414;-76
2022/04/20 05:13:29;;;;;;;;;63.25;52.50;;;;;;;;5121440;27;45263;-76
2022/04/20 05:15:54;;;;;;;;;61.75;50.25;;;;;;;;5102279;27;45709;-76
2022/04/20 05:18:20;;;;;;;;;64.00;51.75;;;;;;;;5098601;27;45425;-76
2022/04/20 05:20:45;;;;;;;;;59.50;48.25;;;;;;;;5120434;27;45321;-76
2022/04/20 05:23:10;;;;;;;;;60.75;48.50;;;;;;;;5115713;27;47962;-76
2022/04/20 05:25:36;;;;;;;;;61.00;48.75;;;;;;;;5141933;27;45316;-76
2022/04/20 05:28:01;;;;;;;;;64.75;51.50;;;;;;;;5142339;27;45270;-75
2022/04/20 05:30:27;;;;;;;;;65.75;51.75;;;;;;;;5123514;27;45937;-77
2022/04/20 05:32:52;;;;;;;;;62.00;49.00;;;;;;;;5122984;27;47962;-76
2022/04/20 05:35:17;;;;;;;;;65.50;52.25;;;;;;;;5142550;27;45300;-77
2022/04/20 05:43:10;;;;;;;;;61.50;50.50;;;;;;;;5141689;27;45909;-78
2022/04/20 05:45:36;;;;;;;;;63.75;50.50;;;;;;;;5141803;27;45318;-77
2022/04/20 05:48:02;;;;;;;;;63.00;49.00;;;;;;;;5123057;27;45354;-76
2022/04/20 05:50:28;;;;;;;;;63.25;48.50;;;;;;;;5122754;27;46185;-76
2022/04/20 05:52:53;;;;;;;;;63.75;50.75;;;;;;;;5141245;27;46192;-76
2022/04/20 05:55:18;;;;;;;;;67.75;52.50;;;;;;;;5122882;27;45310;-77
2022/04/20 05:57:47;;;;;;;;;64.75;51.50;;;;;;;;5141591;27;45358;-77
2022/04/20 06:00:13;;;;;;;;;70.75;53.50;;;;;;;;5141435;27;45498;-77
2022/04/20 06:02:38;;;;;;;;;65.00;51.50;;;;;;;;5141253;27;45269;-77
2022/04/20 06:05:03;;;;;;;;;63.75;52.50;;;;;;;;5141324;27;45304;-78
2022/04/20 06:10:32;;;;;;;;;64.00;50.00;;;;;;;;5141216;27;45229;-77
2022/04/20 06:12:58;;;;;;;;;62.00;50.00;;;;;;;;5127008;27;45414;-79
2022/04/20 06:15:23;;;;;;;;;62.00;49.50;;;;;;;;5118655;27;45391;-78
2022/04/20 06:17:48;;;;;;;;;65.50;52.00;;;;;;;;5120209;27;45504;-78
2022/04/20 06:20:13;;;;;;;;;65.50;51.50;;;;;;;;5119089;27;45418;-80
2022/04/20 06:22:39;;;;;;;;;62.00;49.00;;;;;;;;5104857;27;47097;-77
2022/04/20 06:25:04;;;;;;;;;63.25;50.75;;;;;;;;5123348;27;45636;-78
2022/04/20 06:27:30;;;;;;;;;61.00;49.50;;;;;;;;5104908;27;45440;-77
2022/04/20 06:29:55;;;;;;;;;63.00;50.25;;;;;;;;5120441;27;45293;-78
2022/04/20 06:32:23;;;;;;;;;63.25;51.25;;;;;;;;5122972;27;46343;-77
2022/04/20 06:34:48;;;;;;;;;66.50;51.50;;;;;;;;5123067;27;45420;-78
2022/04/20 06:37:14;;;;;;;;;63.75;51.75;;;;;;;;5123110;27;45340;-78
2022/04/20 06:39:39;;;;;;;;;64.25;51.00;;;;;;;;5123237;27;45271;-78
2022/04/20 06:42:04;;;;;;;;;67.25;52.00;;;;;;;;5123046;27;45331;-79
2022/04/20 06:44:30;;;;;;;;;103.00;93.67;;;;;;;;5123062;27;45219;-79
2022/04/20 06:46:56;;;;;;;;;72.25;59.25;;;;;;;;5123426;27;45232;-77
2022/04/20 06:49:21;;;;;;;;;71.50;56.50;;;;;;;;5104769;27;46203;-77
2022/04/20 06:59:58;;;;;;;;;64.50;51.50;;;;;;;;5120968;27;45242;-77
2022/04/20 07:02:23;;;;;;;;;69.50;55.25;;;;;;;;5100065;27;47623;-76
2022/04/20 07:04:48;;;;;;;;;71.25;58.25;;;;;;;;5121757;27;45464;-77
2022/04/20 07:07:14;;;;;;;;;64.00;50.50;;;;;;;;5121560;27;45434;-75
2022/04/20 07:09:39;;;;;;;;;58.75;47.75;;;;;;;;5103054;27;45882;-74
2022/04/20 07:12:04;;;;;;;;;82.50;68.50;;;;;;;;5102784;27;47186;-75
2022/04/20 07:14:29;;;;;;;;;62.50;50.50;;;;;;;;5120000;27;45423;-75
2022/04/20 07:16:55;;;;;;;;;59.75;48.25;;;;;;;;5121243;27;45477;-75
2022/04/20 07:19:20;;;;;;;;;62.25;50.00;;;;;;;;5101890;27;47129;-74
2022/04/20 07:21:45;;;;;;;;;74.75;66.25;;;;;;;;5142425;27;45673;-75
2022/04/20 07:24:10;;;;;;;;;83.75;76.00;;;;;;;;5143933;27;45403;-76
2022/04/20 07:26:36;;;;;;;;;59.00;47.75;;;;;;;;5143992;27;45162;-76
2022/04/20 07:29:01;;;;;;;;;117.25;106.25;;;;;;;;5143234;27;45392;-75
2022/04/20 07:31:26;;;;;;;;;98.75;92.25;;;;;;;;5130273;27;45316;-76
2022/04/20 07:33:51;;;;;;;;;70.00;58.75;;;;;;;;5111598;27;45345;-75
2022/04/20 07:36:16;;;;;;;;;77.50;67.50;;;;;;;;5103127;27;45357;-75
2022/04/20 07:38:42;;;;;;;;;61.75;48.75;;;;;;;;5117172;27;45292;-76
2022/04/20 07:41:07;;;;;;;;;65.50;51.50;;;;;;;;5119971;27;46080;-77
2022/04/20 07:43:33;;;;;;;;;52.25;42.75;;;;;;;;5102453;27;45303;-76
2022/04/20 07:45:58;;;;;;;;;50.00;40.75;;;;;;;;5116497;27;45309;-77
2022/04/20 07:48:23;;;;;;;;;62.50;50.50;;;;;;;;5113161;27;45337;-77
2022/04/20 07:50:49;;;;;;;;;80.00;73.00;;;;;;;;5110244;27;45379;-78
2022/04/20 07:53:14;;;;;;;;;87.75;79.75;;;;;;;;5092301;27;45729;-78
2022/04/20 07:55:46;;;;;;;;;52.00;43.00;;;;;;;;5101467;27;45274;-78
2022/04/20 07:58:11;;;;;;;;;46.75;38.75;;;;;;;;5108721;27;45305;-78
2022/04/20 08:00:36;;;;;;;;;50.25;42.00;;;;;;;;5111003;27;46137;-77
2022/04/20 08:03:07;;;;;;;;;66.50;53.50;;;;;;;;5109192;27;45317;-78
2022/04/20 08:05:32;;;;;;;;;67.50;55.75;;;;;;;;5103532;27;45292;-76
2022/04/20 08:07:58;;;;;;;;;42.50;36.50;;;;;;;;5117206;27;45523;-79
2022/04/20 08:10:23;;;;;;;;;49.50;40.50;;;;;;;;5113021;27;45391;-77
2022/04/20 08:12:48;;;;;;;;;58.75;46.25;;;;;;;;5095006;27;45515;-78
2022/04/20 08:15:13;;;;;;;;;45.25;37.75;;;;;;;;5095270;27;45479;-76
2022/04/20 08:17:39;;;;;;;;;45.25;37.25;;;;;;;;5121325;27;45271;-77
2022/04/20 08:20:06;;;;;;;;;96.25;87.25;;;;;;;;5099561;27;47054;-76
2022/04/20 08:22:31;;;;;;;;;50.50;42.50;;;;;;;;5096741;27;45842;-76
2022/04/20 08:24:57;;;;;;;;;38.75;33.75;;;;;;;;5121448;27;45378;-76
2022/04/20 08:27:22;;;;;;;;;38.50;33.75;;;;;;;;5105542;27;45457;-76
2022/04/20 08:29:48;;;;;;;;;42.00;35.25;;;;;;;;5082294;27;47455;-76
2022/04/20 08:32:15;;;;;;;;;39.25;32.50;;;;;;;;5100270;27;45385;-77
2022/04/20 08:34:42;;;;;;;;;106.25;96.00;;;;;;;;5109130;27;45302;-78
2022/04/20 08:37:07;;;;;;;;;35.50;30.75;;;;;;;;5110913;27;45555;-78
2022/04/20 08:39:32;;;;;;;;;40.00;34.00;;;;;;;;5113587;27;46464;-79
2022/04/20 08:41:59;;;;;;;;;48.50;40.50;;;;;;;;5104226;27;45592;-79
2022/04/20 08:44:26;;;;;;;;;37.50;33.25;;;;;;;;5116851;27;45357;-77
2022/04/20 08:46:53;;;;;;;;;37.25;31.00;;;;;;;;5121383;27;45330;-79
2022/04/20 08:49:18;;;;;;;;;73.25;63.25;;;;;;;;5108407;27;46091;-77
2022/04/20 08:54:28;;;;;;;;;45.75;37.50;;;;;;;;5107225;27;45339;-77
2022/04/20 08:59:38;;;;;;;;;105.00;94.75;;;;;;;;5110366;27;45801;-77
2022/04/20 09:02:03;;;;;;;;;76.25;69.50;;;;;;;;5115806;27;45669;-77
2022/04/20 09:04:28;;;;;;;;;73.50;61.50;;;;;;;;5100455;27;45437;-77
2022/04/20 09:06:54;;;;;;;;;74.75;62.75;;;;;;;;5115883;27;45957;-78
2022/04/20 09:09:20;;;;;;;;;58.50;47.00;;;;;;;;5118334;27;46187;-77
2022/04/20 09:11:46;;;;;;;;;26.33;26.33;;;;;;;;5120299;27;45452;-78
2022/04/20 09:14:13;;;;;;;;;53.00;41.75;;;;;;;;5115804;27;45408;-79
2022/04/20 09:16:43;;;;;;;;;50.25;41.00;;;;;;;;5100837;27;47389;-80
2022/04/20 09:19:08;;;;;;;;;45.25;37.00;;;;;;;;5120130;27;46152;-79
2022/04/20 09:21:34;;;;;;;;;34.25;31.00;;;;;;;;5137943;27;45277;-77
2022/04/20 09:24:06;;;;;;;;;30.00;28.00;;;;;;;;5120806;27;45539;-77
2022/04/20 09:26:31;;;;;;;;;27.33;24.33;;;;;;;;5096775;27;46277;-78
2022/04/20 09:29:06;;;;;;;;;28.00;26.67;;;;;;;;5120035;27;45391;-79
2022/04/20 09:31:44;;;;;;;;;43.00;33.25;;;;;;;;5115437;27;45389;-79
2022/04/20 09:37:13;;;;;;;;;65.50;50.50;;;;;;;;5140466;27;45364;-77
2022/04/20 09:39:43;;;;;;;;;54.50;44.00;;;;;;;;5122871;27;47929;-79
2022/04/20 09:42:09;;;;;;;;;57.25;45.75;;;;;;;;5121127;27;45325;-78
2022/04/20 09:44:35;;;;;;;;;46.00;36.75;;;;;;;;5110214;27;45505;-77
2022/04/20 09:49:53;;;;;;;;;44.75;37.00;;;;;;;;5108144;27;45851;-79
2022/04/20 09:52:18;;;;;;;;;22.00;22.00;;;;;;;;5111140;27;45427;-79
2022/04/20 09:54:53;;;;;;;;;84.25;68.75;;;;;;;;5110906;27;45344;-79
2022/04/20 09:57:20;;;;;;;;;42.50;34.50;;;;;;;;5112307;27;45414;-79
2022/04/20 10:00:12;;;;;;;;;31.67;30.00;;;;;;;;5124729;27;46126;-79
2022/04/20 10:02:38;;;;;;;;;22.67;21.67;;;;;;;;5119411;27;45344;-77
2022/04/20 10:05:03;;;;;;;;;18.00;18.00;;;;;;;;5124420;27;45286;-79
2022/04/20 10:07:28;;;;;;;;;24.67;24.00;;;;;;;;5123340;27;46278;-79
2022/04/20 10:09:53;;;;;;;;;24.33;23.00;;;;;;;;5123471;27;45674;-79
2022/04/20 10:12:19;;;;;;;;;45.75;37.50;;;;;;;;5104824;27;45535;-78
2022/04/20 10:17:34;;;;;;;;;31.33;28.00;;;;;;;;5124524;27;45156;-79
2022/04/20 10:20:01;;;;;;;;;30.00;27.00;;;;;;;;5123862;27;46390;-77
2022/04/20 10:22:27;;;;;;;;;19.33;18.33;;;;;;;;5123871;27;45345;-78
2022/04/20 10:24:55;;;;;;;;;18.33;17.67;;;;;;;;5103096;27;45438;-75
2022/04/20 10:27:21;;;;;;;;;31.00;29.33;;;;;;;;5123190;27;45212;-78
2022/04/20 10:29:54;;;;;;;;;16.67;14.67;;;;;;;;5104618;27;48073;-77
2022/04/20 10:32:23;;;;;;;;;15.67;14.33;;;;;;;;5122898;27;45436;-77
2022/04/20 10:34:51;;;;;;;;;55.25;44.50;;;;;;;;5123898;27;45232;-78
2022/04/20 10:37:20;;;;;;;;;20.00;19.00;;;;;;;;5124826;27;44842;-79
2022/04/20 10:39:45;;;;;;;;;23.00;22.33;;;;;;;;5106094;27;47254;-79
2022/04/20 10:42:17;;;;;;;;;51.75;41.75;;;;;;;;5107516;27;45180;-78
2022/04/20 10:44:49;;;;;;;;;17.33;17.00;;;;;;;;5105326;27;45332;-78
2022/04/20 10:47:22;;;;;;;;;16.00;16.00;;;;;;;;5116769;27;45594;-79
2022/04/20 10:49:49;;;;;;;;;51.25;40.00;;;;;;;;5104613;27;47320;-78
2022/04/20 10:52:24;;;;;;;;;22.67;19.33;;;;;;;;5105900;27;45252;-79
2022/04/20 10:54:53;;;;;;;;;10.67;10.67;;;;;;;;5125875;27;45151;-79
2022/04/20 10:57:31;;;;;;;;;59.50;46.75;;;;;;;;5111226;27;45767;-80
2022/04/20 11:00:16;;;;;;;;;20.00;20.00;;;;;;;;5105339;27;47535;-81
2022/04/20 11:02:49;;;;;;;;;70.75;56.75;;;;;;;;5111230;27;45200;-81
2022/04/20 11:05:15;;;;;;;;;30.33;28.00;;;;;;;;5123761;27;45599;-84
2022/04/20 11:07:59;;;;;;;;;11.00;11.00;;;;;;;;5106710;27;46415;-81
2022/04/20 11:10:25;;;;;;;;;7.67;7.67;;;;;;;;5123610;27;45558;-80
2022/04/20 11:18:44;;;;;;;;;67.00;52.75;;;;;;;;5122297;27;45395;-79
2022/04/20 11:21:10;;;;;;;;;10.33;9.00;;;;;;;;5105572;27;45259;-81
2022/04/20 11:23:54;;;;;;;;;10.33;10.00;;;;;;;;5106000;27;45480;-81
2022/04/20 11:26:25;;;;;;;;;6.00;6.00;;;;;;;;5119537;27;45356;-80
2022/04/20 11:28:51;;;;;;;;;18.33;17.33;;;;;;;;5113647;27;45460;-80
2022/04/20 11:31:17;;;;;;;;;16.67;15.00;;;;;;;;5116348;27;45361;-81
2022/04/20 11:33:42;;;;;;;;;50.67;41.33;;;;;;;;5115924;27;45337;-79
2022/04/20 11:36:09;;;;;;;;;48.00;37.00;;;;;;;;5119422;27;45223;-79
2022/04/20 11:38:40;;;;;;;;;56.75;45.50;;;;;;;;5119372;27;45433;-80
2022/04/20 11:41:05;;;;;;;;;6.00;6.00;;;;;;;;5118257;27;45399;-77
2022/04/20 11:43:31;;;;;;;;;4.00;4.00;;;;;;;;5119032;27;45361;-80
2022/04/20 11:45:56;;;;;;;;;66.25;49.00;;;;;;;;5117915;27;45374;-79
2022/04/20 11:48:21;;;;;;;;;55.25;44.25;;;;;;;;5111269;27;45262;-80
2022/04/20 11:50:59;;;;;;;;;43.33;36.67;;;;;;;;5116716;27;45475;-79
2022/04/20 11:53:31;;;;;;;;;10.67;10.33;;;;;;;;5120113;27;45345;-80
2022/04/20 11:55:56;;;;;;;;;36.33;32.00;;;;;;;;5124776;27;45232;-79
2022/04/20 11:58:21;;;;;;;;;5.33;5.33;;;;;;;;5101868;27;45992;-79
2022/04/20 12:00:46;;;;;;;;;33.00;28.00;;;;;;;;5104329;27;47338;-79
2022/04/20 12:03:12;;;;;;;;;5.00;3.67;;;;;;;;5109150;27;45277;-79
2022/04/20 12:05:37;;;;;;;;;11.00;9.33;;;;;;;;5103594;27;45995;-79
2022/04/20 12:08:02;;;;;;;;;17.00;14.67;;;;;;;;5108609;27;46198;-80
2022/04/20 12:10:27;;;;;;;;;39.33;33.00;;;;;;;;5126229;27;47330;-82
2022/04/20 12:12:53;;;;;;;;;10.67;8.67;;;;;;;;5113390;27;45275;-83
2022/04/20 12:15:20;;;;;;;;;3.67;3.67;;;;;;;;5131699;27;45423;-81
2022/04/20 12:17:46;;;;;;;;;62.75;50.00;;;;;;;;5120609;27;45428;-80
2022/04/20 12:20:12;;;;;;;;;4.67;4.00;;;;;;;;5108525;27;45338;-82
2022/04/20 12:22:37;;;;;;;;;2.67;2.67;;;;;;;;5091843;27;46107;-81
2022/04/20 12:25:06;;;;;;;;;43.00;35.33;;;;;;;;5087424;27;45704;-80
2022/04/20 12:27:31;;;;;;;;;79.75;70.50;;;;;;;;5092741;27;46594;-81
2022/04/20 12:29:57;;;;;;;;;17.00;15.67;;;;;;;;5090844;27;46448;-80
2022/04/20 12:32:26;;;;;;;;;12.00;11.00;;;;;;;;5113361;27;45206;-80
2022/04/20 12:34:59;;;;;;;;;28.00;23.00;;;;;;;;5094762;27;45414;-81
2022/04/20 12:37:29;;;;;;;;;3.67;3.67;;;;;;;;5110095;27;45311;-82
2022/04/20 12:39:54;;;;;;;;;4.00;4.00;;;;;;;;5111602;27;45422;-81
2022/04/20 12:42:19;;;;;;;;;9.33;7.33;;;;;;;;5111857;27;45422;-80
2022/04/20 12:44:51;;;;;;;;;6.33;5.00;;;;;;;;5112527;27;45566;-80
2022/04/20 12:47:17;;;;;;;;;3.67;3.67;;;;;;;;5112513;27;45314;-81
2022/04/20 12:49:42;;;;;;;;;42.33;36.00;;;;;;;;5113826;27;45436;-80
2022/04/20 12:52:12;;;;;;;;;83.25;69.00;;;;;;;;5094096;27;45448;-81
2022/04/20 12:54:38;;;;;;;;;5.00;5.00;;;;;;;;5111301;27;45223;-81
2022/04/20 13:03:03;;;;;;;;;39.33;32.67;;;;;;;;5113815;27;45304;-83
2022/04/20 13:05:29;;;;;;;;;14.67;13.33;;;;;;;;5095339;27;45254;-81
2022/04/20 13:07:54;;;;;;;;;24.67;23.33;;;;;;;;5109481;27;45218;-83
2022/04/20 13:10:20;;;;;;;;;27.33;24.67;;;;;;;;5094867;27;46973;-83
2022/04/20 13:12:52;;;;;;;;;6.33;6.33;;;;;;;;5112555;27;45534;-82
2022/04/20 13:15:18;;;;;;;;;3.00;2.33;;;;;;;;5112110;27;45205;-80
2022/04/20 13:17:43;;;;;;;;;4.00;3.00;;;;;;;;5119954;27;46115;-82
2022/04/20 13:20:08;;;;;;;;;5.00;4.00;;;;;;;;5096857;27;48095;-80
2022/04/20 13:22:34;;;;;;;;;4.67;4.00;;;;;;;;5085809;27;45243;-81
2022/04/20 13:27:55;;;;;;;;;4.00;4.00;;;;;;;;5111081;27;45566;-79
2022/04/20 13:37:18;;;;;;;;;5.00;5.00;;;;;;;;5004956;28;45565;-78
2022/04/20 13:43:00;;;;;;;;;3.67;3.67;;;;;;;;4971721;28;45294;-80
2022/04/20 13:45:26;;;;;;;;;5.00;5.00;;;;;;;;5098503;27;45912;-81
2022/04/20 13:50:55;;;;;;;;;4.00;4.00;;;;;;;;5095691;27;45653;-82
2022/04/20 13:53:21;;;;;;;;;4.00;4.00;;;;;;;;5088896;27;47190;-81
2022/04/20 13:55:52;;;;;;;;;4.67;4.67;;;;;;;;5098325;27;45487;-81
2022/04/20 13:58:20;;;;;;;;;3.00;3.00;;;;;;;;5099313;27;45634;-81
2022/04/20 14:00:45;;;;;;;;;5.33;5.00;;;;;;;;5119737;27;45870;-80
2022/04/20 14:03:10;;;;;;;;;5.00;5.00;;;;;;;;5119748;27;46131;-80
2022/04/20 14:05:36;;;;;;;;;4.00;3.67;;;;;;;;5119661;27;45372;-80
2022/04/20 14:08:01;;;;;;;;;5.00;3.67;;;;;;;;5120226;27;45275;-81
2022/04/20 14:10:27;;;;;;;;;3.00;3.00;;;;;;;;5112752;27;45528;-80
2022/04/20 14:12:52;;;;;;;;;3.00;3.00;;;;;;;;5081531;27;47086;-80
2022/04/20 14:15:18;;;;;;;;;3.33;3.33;;;;;;;;5106842;27;45267;-79
2022/04/20 14:17:44;;;;;;;;;6.67;4.00;;;;;;;;5123460;27;45308;-80
2022/04/20 14:20:10;;;;;;;;;2.67;2.67;;;;;;;;5120524;27;45540;-79
2022/04/20 14:22:35;;;;;;;;;6.00;4.33;;;;;;;;5095157;27;48001;-81
2022/04/20 14:33:12;;;;;;;;;4.00;4.00;;;;;;;;5100007;27;45697;-79
2022/04/20 14:35:37;;;;;;;;;6.33;6.33;;;;;;;;5099479;27;45226;-80
2022/04/20 14:38:04;;;;;;;;;5.33;5.00;;;;;;;;5082124;27;45255;-80
2022/04/20 14:40:29;;;;;;;;;6.00;6.00;;;;;;;;5105276;27;45402;-80
2022/04/20 14:42:54;;;;;;;;;3.33;3.33;;;;;;;;5123792;27;45290;-81
2022/04/20 14:45:23;;;;;;;;;4.33;4.00;;;;;;;;5109163;27;45245;-80
2022/04/20 14:47:48;;;;;;;;;3.67;3.67;;;;;;;;5105918;27;45401;-81
2022/04/20 14:50:13;;;;;;;;;6.00;6.00;;;;;;;;5118036;27;45481;-80
2022/04/20 14:52:38;;;;;;;;;5.00;4.33;;;;;;;;5125529;27;45317;-80
2022/04/20 14:55:04;;;;;;;;;4.00;4.00;;;;;;;;5106297;27;45540;-80
2022/04/20 14:57:29;;;;;;;;;4.33;4.33;;;;;;;;5106047;27;45724;-81
2022/04/20 14:59:54;;;;;;;;;6.00;6.00;;;;;;;;5126565;27;45469;-81
2022/04/20 15:02:20;;;;;;;;;5.00;5.00;;;;;;;;5111299;27;45312;-79
2022/04/20 15:04:45;;;;;;;;;3.67;3.67;;;;;;;;5084079;27;45363;-80
2022/04/20 15:07:10;;;;;;;;;5.00;5.00;;;;;;;;5105367;27;45578;-80
2022/04/20 15:09:35;;;;;;;;;4.67;4.33;;;;;;;;5103735;27;45448;-80
2022/04/20 15:12:01;;;;;;;;;5.00;5.00;;;;;;;;5109597;27;45321;-81
2022/04/20 15:14:26;;;;;;;;;4.33;4.33;;;;;;;;5120123;27;45350;-80
2022/04/20 15:16:52;;;;;;;;;5.33;5.33;;;;;;;;5134368;27;45324;-81
2022/04/20 15:19:18;;;;;;;;;5.67;4.33;;;;;;;;5117171;27;45424;-80
2022/04/20 15:21:43;;;;;;;;;5.00;5.00;;;;;;;;5123662;27;45388;-82
2022/04/20 15:24:11;;;;;;;;;4.00;4.00;;;;;;;;5123549;27;45404;-78
2022/04/20 15:26:44;;;;;;;;;4.00;4.00;;;;;;;;5108478;27;45390;-78
2022/04/20 15:29:09;;;;;;;;;5.00;4.00;;;;;;;;5120923;27;45446;-79